This is the latest recevied weather packets stored in our database for station/object KG2V. If no packets are shown the sender has not sent any weather packets the latest 10 day(s).
| Time | Temp. | Humidity | Pressure | Rain* | Wind** | Luminosity | Snow |
|---|---|---|---|---|---|---|---|
| 1777971912 | 13.33° C | 90% | 997.6 hPa | 0 mm | - | 0 W/m² | - |
| 1777971610 | 13.33° C | 91% | 997.2 hPa | 0 mm | - | 0 W/m² | - |
| 1777971308 | 12.78° C | 92% | 997.5 hPa | 0 mm | - | 0 W/m² | - |
| 1777970401 | 12.22° C | 95% | 997.9 hPa | 0 mm | - | 0 W/m² | - |
| 1777970098 | 12.22° C | 95% | 997.9 hPa | 0 mm | - | 0 W/m² | - |
| 1777969794 | 12.78° C | 94% | 997.8 hPa | 0 mm | - | 0 W/m² | - |
| 1777969490 | 12.78° C | 94% | 998 hPa | 0 mm | - | 0 W/m² | - |
| 1777969187 | 12.78° C | 93% | 998 hPa | 0 mm | - | 0 W/m² | - |
| 1777968884 | 12.78° C | 92% | 997.9 hPa | 0 mm | - | 0 W/m² | - |
| 1777968580 | 13.33° C | 91% | 997.9 hPa | 0 mm | - | 0 W/m² | - |
| 1777968276 | 13.33° C | 91% | 998.1 hPa | 0 mm | - | 0 W/m² | - |
| 1777967972 | 13.89° C | 89% | 998 hPa | 0 mm | - | 0 W/m² | - |
| 1777967669 | 13.89° C | 89% | 998 hPa | 0 mm | - | 0 W/m² | - |
| 1777967064 | 14.44° C | 88% | 998.1 hPa | 0 mm | - | 0 W/m² | - |
| 1777966761 | 14.44° C | 87% | 998.3 hPa | 0 mm | - | 0 W/m² | - |
| 1777966459 | 14.44° C | 86% | 998.4 hPa | 0 mm | - | 0 W/m² | - |
| 1777966156 | 14.44° C | 87% | 998.4 hPa | 0 mm | - | 0 W/m² | - |
| 1777965851 | 14.44° C | 88% | 998.7 hPa | 0 mm | - | 0 W/m² | - |
| 1777965548 | 14.44° C | 88% | 998.9 hPa | 0 mm | - | 0 W/m² | - |
| 1777965244 | 15° C | 87% | 998.5 hPa | 0 mm | - | 0 W/m² | - |
| 1777964942 | 15° C | 86% | 998.5 hPa | 0 mm | - | 0 W/m² | - |
| 1777964638 | 15° C | 88% | 998.5 hPa | 0 mm | - | 0 W/m² | - |
| 1777964334 | 15° C | 87% | 998.6 hPa | 1.78 mm | - | 0 W/m² | - |
| 1777964031 | 15° C | 85% | 998.5 hPa | 1.78 mm | - | 0 W/m² | - |
| 1777963728 | 15.56° C | 84% | 998.4 hPa | 0 mm | - | 0 W/m² | - |
* Rain latest hour (hover to see other rain measurements)
** Current wind speed in m/s (hover to see current wind gust speed)